This is the latest recevied weather packets stored in our database for station/object IK0TIX. If no packets are shown the sender has not sent any weather packets the latest 10 day(s).
| Time | Temp. | Humidity | Pressure | Rain* | Wind** | Luminosity | Snow |
|---|---|---|---|---|---|---|---|
| 1777511673 | 16.67° C | 76% | 1017.5 hPa | 1.02 mm | - | - | - |
| 1777511106 | 16.11° C | 74% | 1017.4 hPa | 1.02 mm | - | - | - |
| 1777510802 | 16.11° C | 72% | 1017.5 hPa | 1.02 mm | - | - | - |
| 1777509295 | 17.22° C | 68% | 1017.5 hPa | 0 mm | - | - | - |
| 1777509004 | 17.22° C | 67% | 1017.5 hPa | 0 mm | - | - | - |
| 1777508085 | 18.33° C | 63% | 1017.4 hPa | 0 mm | - | - | - |
| 1777507473 | 18.33° C | 62% | 1017.5 hPa | 0 mm | - | - | - |
| 1777507201 | 18.33° C | 61% | 1017.4 hPa | 0 mm | - | - | - |
| 1777506879 | 18.33° C | 58% | 1017.2 hPa | 0 mm | - | - | - |
| 1777506267 | 18.89° C | 57% | 1017.1 hPa | 0 mm | - | - | - |
| 1777503598 | 18.89° C | 48% | 1016.5 hPa | 0 mm | - | - | - |
| 1777502713 | 18.89° C | 48% | 1016.5 hPa | 0 mm | - | - | - |
| 1777502078 | 19.44° C | 48% | 1016.6 hPa | 0 mm | - | - | - |
| 1777499385 | 19.44° C | 47% | 1016.3 hPa | 0 mm | - | - | - |
| 1777494299 | 20° C | 47% | 1016.4 hPa | 0 mm | - | - | - |
| 1777493684 | 20° C | 46% | 1016.4 hPa | 0 mm | - | - | - |
| 1777493421 | 20° C | 46% | 1016.4 hPa | 0 mm | - | - | - |
| 1777493110 | 20° C | 46% | 1016.4 hPa | 0 mm | - | - | - |
| 1777492175 | 20° C | 48% | 1016.4 hPa | 0 mm | - | - | - |
| 1777491870 | 20° C | 48% | 1016.4 hPa | 0 mm | - | - | - |
| 1777490672 | 20° C | 50% | 1016.2 hPa | 0 mm | - | - | - |
| 1777489775 | 20° C | 51% | 1016.1 hPa | 0 mm | - | - | - |
| 1777486780 | 21.67° C | 51% | 1016 hPa | 0 mm | - | - | - |
| 1777486473 | 21.67° C | 51% | 1015.9 hPa | 0 mm | - | - | - |
| 1777485889 | 21.67° C | 51% | 1016.1 hPa | 0 mm | - | - | - |
* Rain latest hour (hover to see other rain measurements)
** Current wind speed in m/s (hover to see current wind gust speed)